createdAt,value
2023-02-28T00:04:10.193Z,-0.03
2023-02-28T00:09:14.257Z,-0.15
2023-02-28T00:14:17.016Z,0.00
2023-02-28T00:19:19.764Z,0.15
2023-02-28T00:24:23.876Z,0.10
2023-02-28T00:29:26.602Z,0.04
2023-02-28T00:34:29.621Z,-0.12
2023-02-28T00:39:36.462Z,-0.21
2023-02-28T00:44:39.228Z,-0.16
2023-02-28T00:49:42.025Z,-0.19
2023-02-28T00:54:47.252Z,-0.19
2023-02-28T00:59:51.247Z,-0.20
2023-02-28T01:04:54.659Z,-0.17
2023-02-28T01:09:59.042Z,-0.11
2023-02-28T01:15:01.825Z,-0.19
2023-02-28T01:20:05.274Z,-0.29
2023-02-28T01:25:10.536Z,-0.44
2023-02-28T01:30:14.110Z,-0.57
2023-02-28T01:35:17.052Z,-0.57
2023-02-28T01:40:21.996Z,-0.59
2023-02-28T01:45:26.976Z,-0.72
2023-02-28T01:50:33.314Z,-0.76
2023-02-28T01:55:38.238Z,-0.76
2023-02-28T02:00:43.496Z,-0.75
2023-02-28T02:05:48.621Z,-0.74
2023-02-28T02:10:56.048Z,-0.76
2023-02-28T02:16:05.970Z,-0.74
2023-02-28T02:21:31.193Z,-0.59
2023-02-28T02:26:53.861Z,-0.55
2023-02-28T02:32:19.223Z,-0.66
2023-02-28T02:37:32.167Z,-0.72
2023-02-28T02:42:43.611Z,-0.84
2023-02-28T02:47:47.664Z,-1.00
2023-02-28T02:52:56.720Z,-1.15
2023-02-28T02:58:04.312Z,-1.31
2023-02-28T03:03:09.162Z,-1.44
2023-02-28T03:08:14.058Z,-1.42
2023-02-28T03:13:37.918Z,-1.53
2023-02-28T03:18:51.277Z,-1.55
2023-02-28T03:24:02.201Z,-1.57
2023-02-28T03:29:13.737Z,-1.49
2023-02-28T03:34:22.235Z,-1.48
2023-02-28T03:39:30.732Z,-1.50
2023-02-28T03:44:38.786Z,-1.43
2023-02-28T03:49:46.935Z,-1.45
2023-02-28T03:54:56.426Z,-1.49
2023-02-28T04:00:05.204Z,-1.61
2023-02-28T04:05:15.278Z,-1.82
2023-02-28T04:10:19.966Z,-1.82
2023-02-28T04:15:23.837Z,-1.85
2023-02-28T04:20:26.641Z,-1.87
2023-02-28T04:25:30.749Z,-1.98
2023-02-28T04:30:34.112Z,-2.32
2023-02-28T04:35:36.903Z,-2.39
2023-02-28T04:40:41.059Z,-2.45
2023-02-28T04:45:43.875Z,-2.49
2023-02-28T04:50:46.646Z,-2.69
2023-02-28T04:55:50.857Z,-2.77
2023-02-28T05:00:54.605Z,-2.68
2023-02-28T05:05:57.470Z,-2.59
2023-02-28T05:11:02.608Z,-2.48
2023-02-28T05:16:05.789Z,-2.47
2023-02-28T05:21:25.323Z,-2.50
2023-02-28T05:26:29.991Z,-2.58
2023-02-28T05:31:33.490Z,-2.44
2023-02-28T05:36:39.334Z,-2.36
2023-02-28T05:41:45.175Z,-2.43
2023-02-28T05:46:47.932Z,-2.52
2023-02-28T05:51:50.692Z,-2.53
2023-02-28T05:56:54.830Z,-2.57
2023-02-28T06:01:57.668Z,-2.59
2023-02-28T06:07:00.633Z,-2.60
2023-02-28T06:12:08.004Z,-2.67
2023-02-28T06:17:11.595Z,-2.91
2023-02-28T06:22:14.377Z,-3.02
2023-02-28T06:27:18.480Z,-2.97
2023-02-28T06:32:21.312Z,-2.82
2023-02-28T06:37:27.054Z,-2.60
2023-02-28T06:42:31.861Z,-2.20
2023-02-28T06:47:34.608Z,-1.66
2023-02-28T06:52:38.328Z,-1.22
2023-02-28T06:57:42.560Z,-0.99
2023-02-28T07:02:45.583Z,-0.64
2023-02-28T07:07:48.337Z,-0.31
2023-02-28T07:12:52.432Z,-0.12
2023-02-28T07:17:55.297Z,0.25
2023-02-28T07:22:58.103Z,0.59
2023-02-28T07:28:02.195Z,1.00
2023-02-28T07:33:05.333Z,1.19
2023-02-28T07:38:09.428Z,1.42
2023-02-28T07:43:13.580Z,1.44
2023-02-28T07:48:17.141Z,0.87
2023-02-28T07:53:19.946Z,1.37
2023-02-28T07:58:24.368Z,1.72
2023-02-28T08:03:27.135Z,2.24
2023-02-28T08:08:32.307Z,2.83
2023-02-28T08:13:36.454Z,2.94
2023-02-28T08:18:39.225Z,2.99
2023-02-28T08:23:42.017Z,3.22
2023-02-28T08:28:46.512Z,2.10
2023-02-28T08:33:51.941Z,2.47
2023-02-28T08:38:54.808Z,2.22
2023-02-28T08:43:58.906Z,2.79
2023-02-28T08:49:02.807Z,3.43
2023-02-28T08:54:05.817Z,3.56
2023-02-28T08:59:11.297Z,3.52
2023-02-28T09:04:17.090Z,3.59
2023-02-28T09:09:22.624Z,4.29
2023-02-28T09:14:26.779Z,3.87
2023-02-28T09:19:29.530Z,5.34
2023-02-28T09:24:32.860Z,6.37
2023-02-28T09:29:37.150Z,7.18
2023-02-28T09:34:40.016Z,6.96
2023-02-28T09:39:43.002Z,5.42
2023-02-28T09:44:49.531Z,5.55
2023-02-28T09:49:52.691Z,6.74
2023-02-28T09:54:55.842Z,7.74
2023-02-28T10:00:19.716Z,8.05
2023-02-28T10:05:27.417Z,8.24
2023-02-28T10:10:39.361Z,7.70
2023-02-28T10:15:44.366Z,8.01
2023-02-28T10:20:48.303Z,8.02
2023-02-28T10:25:58.472Z,8.78
2023-02-28T10:31:03.087Z,8.88
2023-02-28T10:36:07.717Z,9.18
2023-02-28T10:41:12.171Z,9.49
2023-02-28T10:46:26.607Z,9.66
2023-02-28T10:51:37.301Z,9.77
2023-02-28T10:56:40.046Z,7.90
2023-02-28T11:01:46.396Z,8.17
2023-02-28T11:06:50.467Z,9.36
2023-02-28T11:11:53.927Z,10.96
2023-02-28T11:17:04.897Z,10.31
2023-02-28T11:22:09.281Z,10.74
2023-02-28T11:27:27.574Z,10.76
2023-02-28T11:32:33.410Z,11.31
2023-02-28T11:37:36.447Z,11.52
2023-02-28T11:42:57.130Z,11.70
2023-02-28T11:48:10.905Z,12.06
2023-02-28T11:53:23.791Z,12.28
2023-02-28T11:58:37.191Z,12.85
2023-02-28T12:03:54.439Z,12.04
2023-02-28T12:09:14.135Z,11.44
2023-02-28T12:14:45.083Z,12.49
2023-02-28T12:19:56.586Z,10.80
2023-02-28T12:25:34.916Z,11.22
2023-02-28T12:30:43.237Z,13.10
2023-02-28T12:35:52.357Z,12.26
2023-02-28T12:40:59.399Z,10.09
2023-02-28T12:46:10.127Z,10.18
2023-02-28T12:51:15.675Z,10.63
2023-02-28T12:56:29.373Z,10.81
2023-02-28T13:02:01.694Z,11.43
2023-02-28T13:07:25.925Z,12.81
2023-02-28T13:12:29.572Z,15.23
2023-02-28T13:17:32.703Z,14.94
2023-02-28T13:22:42.913Z,12.30
2023-02-28T13:27:47.035Z,14.16
2023-02-28T13:33:28.435Z,14.95
2023-02-28T13:38:38.291Z,14.53
2023-02-28T13:44:03.145Z,13.19
2023-02-28T13:49:21.739Z,12.75
2023-02-28T13:54:42.382Z,12.78
2023-02-28T13:59:53.457Z,12.52
2023-02-28T14:05:03.035Z,11.90
2023-02-28T14:10:10.100Z,11.60
2023-02-28T14:15:43.814Z,11.34
2023-02-28T14:20:48.961Z,11.86
2023-02-28T14:26:06.054Z,12.56
2023-02-28T14:31:13.608Z,11.88
2023-02-28T14:36:22.177Z,12.09
2023-02-28T14:41:32.389Z,11.93
2023-02-28T14:46:39.717Z,11.75
2023-02-28T14:51:42.546Z,10.91
2023-02-28T14:56:52.120Z,11.56
2023-02-28T15:02:09.452Z,10.38
2023-02-28T15:07:13.329Z,10.23
2023-02-28T15:12:17.571Z,10.17
2023-02-28T15:17:26.657Z,10.25
2023-02-28T15:22:33.408Z,10.23
2023-02-28T15:27:44.275Z,9.49
2023-02-28T15:32:47.357Z,9.53
2023-02-28T15:37:55.193Z,9.18
2023-02-28T15:43:19.343Z,8.97
2023-02-28T15:48:25.276Z,8.78
2023-02-28T15:53:33.792Z,8.26
2023-02-28T15:58:38.715Z,7.69
2023-02-28T16:03:46.049Z,7.05
2023-02-28T16:08:49.836Z,6.90
2023-02-28T16:13:54.952Z,6.94
2023-02-28T16:18:57.748Z,7.14
2023-02-28T16:24:00.580Z,6.96
2023-02-28T16:29:05.481Z,6.81
2023-02-28T16:34:08.301Z,6.53
2023-02-28T16:39:11.038Z,6.31
2023-02-28T16:44:23.039Z,6.02
2023-02-28T16:49:25.816Z,5.73
2023-02-28T16:54:28.662Z,5.31
2023-02-28T16:59:33.333Z,4.88
2023-02-28T17:04:36.072Z,4.63
2023-02-28T17:09:42.959Z,4.51
2023-02-28T17:14:47.686Z,4.37
2023-02-28T17:19:50.421Z,4.18
2023-02-28T17:24:53.364Z,4.05
2023-02-28T17:29:57.480Z,3.92
2023-02-28T17:35:00.267Z,3.88
2023-02-28T17:40:03.539Z,3.77
2023-02-28T17:45:08.875Z,3.68
2023-02-28T17:50:16.736Z,3.66
2023-02-28T17:55:20.125Z,3.59
2023-02-28T18:00:25.907Z,3.53
2023-02-28T18:05:28.788Z,3.48
2023-02-28T18:10:34.260Z,3.43
2023-02-28T18:15:39.844Z,3.25
2023-02-28T18:20:43.314Z,3.15
2023-02-28T18:25:47.112Z,3.11
2023-02-28T18:30:51.342Z,3.00
2023-02-28T18:35:57.721Z,2.86
2023-02-28T18:41:02.130Z,2.77
2023-02-28T18:46:08.039Z,2.74
2023-02-28T18:51:12.668Z,2.65
2023-02-28T18:56:17.106Z,2.59
2023-02-28T19:01:22.800Z,2.56
2023-02-28T19:06:25.649Z,2.45
2023-02-28T19:11:29.230Z,2.31
2023-02-28T19:16:33.685Z,2.29
2023-02-28T19:21:36.997Z,2.22
2023-02-28T19:26:39.770Z,2.22
2023-02-28T19:31:43.924Z,2.18
2023-02-28T19:36:46.744Z,2.20
2023-02-28T19:41:49.485Z,2.14
2023-02-28T19:46:54.507Z,2.00
2023-02-28T19:51:57.307Z,1.91
2023-02-28T19:57:00.117Z,1.85
2023-02-28T20:02:04.382Z,1.77
2023-02-28T20:07:07.228Z,1.68
2023-02-28T20:12:23.231Z,1.76
2023-02-28T20:17:30.377Z,1.72
2023-02-28T20:22:33.384Z,1.66
2023-02-28T20:27:36.266Z,1.64
2023-02-28T20:32:40.524Z,1.58
2023-02-28T20:37:43.364Z,1.43
2023-02-28T20:42:46.225Z,1.30
2023-02-28T20:47:51.635Z,1.04
2023-02-28T20:52:54.546Z,0.89
2023-02-28T20:57:58.369Z,1.02
2023-02-28T21:03:02.776Z,1.08
2023-02-28T21:08:05.682Z,1.09
2023-02-28T21:13:08.578Z,1.12
2023-02-28T21:18:12.946Z,1.14
2023-02-28T21:23:15.735Z,1.04
2023-02-28T21:28:18.506Z,1.02
2023-02-28T21:33:22.659Z,1.04
2023-02-28T21:38:25.437Z,1.02
2023-02-28T21:43:28.171Z,1.06
2023-02-28T21:48:32.456Z,0.96
2023-02-28T21:53:37.893Z,0.87
2023-02-28T21:58:40.746Z,0.70
2023-02-28T22:03:45.984Z,0.59
2023-02-28T22:08:51.059Z,0.58
2023-02-28T22:13:56.270Z,0.62
2023-02-28T22:19:03.265Z,0.64
2023-02-28T22:24:06.726Z,0.66
2023-02-28T22:29:10.560Z,0.74
2023-02-28T22:34:15.300Z,0.68
2023-02-28T22:39:18.122Z,0.66
2023-02-28T22:44:22.391Z,0.48
2023-02-28T22:49:26.562Z,0.33
2023-02-28T22:54:29.330Z,0.24
2023-02-28T22:59:32.074Z,0.26
2023-02-28T23:04:36.310Z,0.31
2023-02-28T23:09:39.123Z,0.31
2023-02-28T23:14:42.576Z,0.31
2023-02-28T23:19:46.816Z,0.34
2023-02-28T23:24:49.584Z,0.42
2023-02-28T23:29:52.328Z,0.37
2023-02-28T23:34:56.564Z,0.33
2023-02-28T23:39:59.522Z,0.33
2023-02-28T23:45:02.354Z,-0.24
2023-02-28T23:50:07.293Z,-0.96
2023-02-28T23:55:11.216Z,-1.12
